Portada
METAR-TAF:

METAR-TAF

Aeroports :

Decimomannu, Itàlia

latitud: 39-21N, longitud: 008-58E, altitud: 29 m

Observació

L'informe es va fer fa 38 minuts, a les 22:55 UTC
Vent 3 kt del Nord/Nord-Oest
Temperatura 23°C
Humitat 89%
Pressió 1016 hPa
Visibilitat 10 km o més
sense núvols per sota de 1500 mi sense presència de cumulonimbus.

METAR: LIED 182255Z 33003KT CAVOK 23/21 Q1016 RMK SKC VIS MIN 9999 WIND THR34 /////KT WIND THR16 35002KT BLU

Hora: 01:33 (23:33 UTC)

Pronòstic

L'informe es va fer fa 3 hores i 33 minuts, a les 20:00 UTC
Pronòstic vàlid del 18 a les 21 UTC al 19 a les 06 UTC
Vent 5 kt del Nord/Nord-Oest
Visibilitat 10 km o més
sense núvols per sota de 1500 mi sense presència de cumulonimbus.

TAF: LIED 182000Z 1821/1906 34005KT CAVOK

Observacions i pronòstics meteorològics de més de 4000 aeroports (METAR i TAF).

Les estacions disponibles són els punts grocs i vermells al mapa.

Posi el ratolí al punt desitjat per veure el nom de l'estació.

Feu clic per veure les observacions i els pronòstics meteorològics.

Per canviar el mapa: feu clic els botons verds amb una creu de color negre per apropar; al botó verd amb un guió per allunyar la imatge; o en les fletxes verdes per a mapes adjacents.


METAR-TAF: